sensor_id;sensor_type;location;lat;lon;timestamp;P1;durP1;ratioP1;P2;durP2;ratioP2
24467;SDS011;12634;50.852;5.676;2022-07-18T09:58:11;4.57;;;0.80;;
24467;SDS011;12634;50.852;5.676;2022-07-18T10:00:41;2.65;;;0.90;;
24467;SDS011;12634;50.852;5.676;2022-07-18T10:03:09;3.28;;;1.10;;
24467;SDS011;12634;50.852;5.676;2022-07-18T10:05:37;2.33;;;1.05;;
24467;SDS011;12634;50.852;5.676;2022-07-18T10:08:06;2.22;;;1.02;;
24467;SDS011;12634;50.852;5.676;2022-07-18T10:10:35;4.40;;;0.98;;
24467;SDS011;12634;50.852;5.676;2022-07-18T10:13:04;2.33;;;1.00;;
24467;SDS011;12634;50.852;5.676;2022-07-18T10:15:34;4.78;;;1.15;;
24467;SDS011;12634;50.852;5.676;2022-07-18T10:18:04;2.13;;;0.80;;
24467;SDS011;12634;50.852;5.676;2022-07-18T10:20:33;2.50;;;0.80;;
24467;SDS011;12634;50.852;5.676;2022-07-18T10:23:06;1.55;;;0.88;;
24467;SDS011;12634;50.852;5.676;2022-07-18T10:25:36;2.78;;;0.98;;
24467;SDS011;12634;50.852;5.676;2022-07-18T10:28:05;3.00;;;0.98;;
24467;SDS011;12634;50.852;5.676;2022-07-18T10:30:36;2.65;;;1.00;;
24467;SDS011;12634;50.852;5.676;2022-07-18T10:36:07;2.92;;;0.80;;
24467;SDS011;12634;50.852;5.676;2022-07-18T10:38:36;2.25;;;0.70;;
24467;SDS011;12634;50.852;5.676;2022-07-18T10:41:09;4.32;;;1.08;;
24467;SDS011;12634;50.852;5.676;2022-07-18T10:43:46;1.70;;;1.00;;
24467;SDS011;12634;50.852;5.676;2022-07-18T10:46:15;2.30;;;0.95;;
24467;SDS011;12634;50.852;5.676;2022-07-18T10:48:49;4.03;;;1.10;;
24467;SDS011;12634;50.852;5.676;2022-07-18T10:51:17;1.67;;;0.85;;
24467;SDS011;12634;50.852;5.676;2022-07-18T10:54:04;1.98;;;0.90;;
24467;SDS011;12634;50.852;5.676;2022-07-18T10:59:35;5.20;;;1.77;;
24467;SDS011;12634;50.852;5.676;2022-07-18T11:02:06;5.10;;;1.10;;
24467;SDS011;12634;50.852;5.676;2022-07-18T11:04:35;3.38;;;0.93;;
24467;SDS011;12634;50.852;5.676;2022-07-18T11:07:04;2.65;;;1.00;;
24467;SDS011;12634;50.852;5.676;2022-07-18T11:09:39;2.83;;;0.75;;
24467;SDS011;12634;50.852;5.676;2022-07-18T11:14:57;3.55;;;1.00;;
24467;SDS011;12634;50.852;5.676;2022-07-18T11:20:37;1.77;;;0.90;;
24467;SDS011;12634;50.852;5.676;2022-07-18T11:23:16;2.35;;;1.08;;
24467;SDS011;12634;50.852;5.676;2022-07-18T11:25:46;2.42;;;1.02;;
24467;SDS011;12634;50.852;5.676;2022-07-18T11:28:16;1.88;;;0.80;;
24467;SDS011;12634;50.852;5.676;2022-07-18T11:30:44;0.77;;;0.65;;
24467;SDS011;12634;50.852;5.676;2022-07-18T11:33:23;3.17;;;0.73;;
24467;SDS011;12634;50.852;5.676;2022-07-18T11:35:51;2.95;;;1.02;;
24467;SDS011;12634;50.852;5.676;2022-07-18T11:38:18;1.55;;;0.88;;
24467;SDS011;12634;50.852;5.676;2022-07-18T11:40:46;1.02;;;0.82;;
24467;SDS011;12634;50.852;5.676;2022-07-18T11:43:19;2.65;;;0.77;;
24467;SDS011;12634;50.852;5.676;2022-07-18T11:45:47;2.15;;;0.93;;
24467;SDS011;12634;50.852;5.676;2022-07-18T11:48:21;3.22;;;1.00;;
24467;SDS011;12634;50.852;5.676;2022-07-18T11:50:49;1.27;;;0.88;;
24467;SDS011;12634;50.852;5.676;2022-07-18T11:53:16;1.90;;;1.05;;
24467;SDS011;12634;50.852;5.676;2022-07-18T11:55:43;1.83;;;0.98;;
24467;SDS011;12634;50.852;5.676;2022-07-18T11:58:11;2.08;;;1.02;;
24467;SDS011;12634;50.852;5.676;2022-07-18T12:00:40;2.42;;;0.95;;
24467;SDS011;12634;50.852;5.676;2022-07-18T12:03:08;2.83;;;1.15;;
24467;SDS011;12634;50.852;5.676;2022-07-18T12:05:39;2.30;;;1.17;;
24467;SDS011;12634;50.852;5.676;2022-07-18T12:08:26;7.00;;;2.25;;
24467;SDS011;12634;50.852;5.676;2022-07-18T12:11:06;1.70;;;0.95;;
24467;SDS011;12634;50.852;5.676;2022-07-18T12:13:41;2.15;;;0.90;;
24467;SDS011;12634;50.852;5.676;2022-07-18T12:16:20;5.60;;;1.50;;
24467;SDS011;12634;50.852;5.676;2022-07-18T12:18:49;2.08;;;1.20;;
24467;SDS011;12634;50.852;5.676;2022-07-18T12:21:18;1.73;;;1.15;;
24467;SDS011;12634;50.852;5.676;2022-07-18T12:23:48;2.83;;;1.30;;
24467;SDS011;12634;50.852;5.676;2022-07-18T12:26:26;1.50;;;1.10;;
24467;SDS011;12634;50.852;5.676;2022-07-18T12:29:07;1.95;;;1.10;;
24467;SDS011;12634;50.852;5.676;2022-07-18T12:31:35;1.52;;;0.98;;
24467;SDS011;12634;50.852;5.676;2022-07-18T12:34:06;2.45;;;1.27;;
24467;SDS011;12634;50.852;5.676;2022-07-18T12:39:29;2.95;;;0.75;;
24467;SDS011;12634;50.852;5.676;2022-07-18T12:41:59;3.30;;;0.82;;
24467;SDS011;12634;50.852;5.676;2022-07-18T12:44:27;3.58;;;1.27;;
24467;SDS011;12634;50.852;5.676;2022-07-18T12:46:54;2.03;;;1.10;;
24467;SDS011;12634;50.852;5.676;2022-07-18T12:49:22;1.85;;;0.90;;
24467;SDS011;12634;50.852;5.676;2022-07-18T12:51:49;3.50;;;1.00;;
24467;SDS011;12634;50.852;5.676;2022-07-18T12:54:16;3.40;;;0.98;;
24467;SDS011;12634;50.852;5.676;2022-07-18T12:56:46;2.85;;;1.08;;
24467;SDS011;12634;50.852;5.676;2022-07-18T12:59:13;2.20;;;0.90;;
24467;SDS011;12634;50.852;5.676;2022-07-18T13:01:40;2.33;;;0.75;;
24467;SDS011;12634;50.852;5.676;2022-07-18T13:04:08;2.90;;;1.10;;
24467;SDS011;12634;50.852;5.676;2022-07-18T13:06:35;3.60;;;0.88;;
24467;SDS011;12634;50.852;5.676;2022-07-18T13:09:03;4.43;;;1.10;;
24467;SDS011;12634;50.852;5.676;2022-07-18T13:11:31;2.58;;;1.20;;
24467;SDS011;12634;50.852;5.676;2022-07-18T13:14:00;1.42;;;0.75;;
24467;SDS011;12634;50.852;5.676;2022-07-18T13:16:27;2.08;;;1.00;;
24467;SDS011;12634;50.852;5.676;2022-07-18T13:18:54;2.70;;;0.88;;
24467;SDS011;12634;50.852;5.676;2022-07-18T13:21:21;2.50;;;1.05;;
24467;SDS011;12634;50.852;5.676;2022-07-18T13:23:48;2.78;;;1.38;;
24467;SDS011;12634;50.852;5.676;2022-07-18T13:26:16;1.75;;;1.02;;
24467;SDS011;12634;50.852;5.676;2022-07-18T13:28:43;1.27;;;0.68;;
24467;SDS011;12634;50.852;5.676;2022-07-18T13:31:12;3.08;;;1.00;;
24467;SDS011;12634;50.852;5.676;2022-07-18T13:33:39;1.67;;;0.85;;
24467;SDS011;12634;50.852;5.676;2022-07-18T13:36:06;1.02;;;0.93;;
24467;SDS011;12634;50.852;5.676;2022-07-18T13:38:34;3.55;;;0.98;;
24467;SDS011;12634;50.852;5.676;2022-07-18T13:41:01;4.38;;;1.05;;
24467;SDS011;12634;50.852;5.676;2022-07-18T13:43:28;1.35;;;0.73;;
24467;SDS011;12634;50.852;5.676;2022-07-18T13:45:55;1.92;;;0.90;;
24467;SDS011;12634;50.852;5.676;2022-07-18T13:48:24;1.27;;;0.93;;
24467;SDS011;12634;50.852;5.676;2022-07-18T13:50:51;2.60;;;1.15;;
24467;SDS011;12634;50.852;5.676;2022-07-18T13:53:18;1.80;;;0.98;;
24467;SDS011;12634;50.852;5.676;2022-07-18T13:55:45;1.50;;;1.00;;
24467;SDS011;12634;50.852;5.676;2022-07-18T13:58:13;1.27;;;0.90;;
24467;SDS011;12634;50.852;5.676;2022-07-18T14:00:40;4.35;;;1.13;;
24467;SDS011;12634;50.852;5.676;2022-07-18T14:03:07;2.90;;;0.98;;
24467;SDS011;12634;50.852;5.676;2022-07-18T14:05:36;3.15;;;1.02;;
24467;SDS011;12634;50.852;5.676;2022-07-18T14:08:03;1.88;;;0.93;;
24467;SDS011;12634;50.852;5.676;2022-07-18T14:10:31;2.53;;;1.20;;
24467;SDS011;12634;50.852;5.676;2022-07-18T14:12:59;2.15;;;0.95;;
24467;SDS011;12634;50.852;5.676;2022-07-18T14:15:27;2.97;;;0.93;;
24467;SDS011;12634;50.852;5.676;2022-07-18T14:17:54;1.95;;;1.00;;
24467;SDS011;12634;50.852;5.676;2022-07-18T14:20:25;3.55;;;1.00;;
24467;SDS011;12634;50.852;5.676;2022-07-18T14:22:54;4.88;;;1.00;;
24467;SDS011;12634;50.852;5.676;2022-07-18T14:25:21;2.05;;;0.80;;
24467;SDS011;12634;50.852;5.676;2022-07-18T14:27:48;2.45;;;1.02;;
24467;SDS011;12634;50.852;5.676;2022-07-18T14:30:16;1.05;;;0.90;;
24467;SDS011;12634;50.852;5.676;2022-07-18T14:32:44;3.30;;;0.82;;
24467;SDS011;12634;50.852;5.676;2022-07-18T14:35:11;5.20;;;1.10;;
24467;SDS011;12634;50.852;5.676;2022-07-18T14:37:39;2.17;;;1.20;;
24467;SDS011;12634;50.852;5.676;2022-07-18T14:40:08;4.60;;;1.02;;
24467;SDS011;12634;50.852;5.676;2022-07-18T14:42:36;3.25;;;0.90;;
24467;SDS011;12634;50.852;5.676;2022-07-18T14:45:03;2.03;;;1.00;;
24467;SDS011;12634;50.852;5.676;2022-07-18T14:47:32;1.50;;;0.93;;
24467;SDS011;12634;50.852;5.676;2022-07-18T14:50:00;1.98;;;0.90;;
24467;SDS011;12634;50.852;5.676;2022-07-18T14:52:28;1.55;;;0.90;;
24467;SDS011;12634;50.852;5.676;2022-07-18T14:54:56;2.55;;;0.98;;
24467;SDS011;12634;50.852;5.676;2022-07-18T14:57:25;2.13;;;0.90;;
24467;SDS011;12634;50.852;5.676;2022-07-18T14:59:52;1.40;;;0.80;;
24467;SDS011;12634;50.852;5.676;2022-07-18T15:02:19;2.00;;;0.93;;
24467;SDS011;12634;50.852;5.676;2022-07-18T15:04:47;4.43;;;1.13;;
24467;SDS011;12634;50.852;5.676;2022-07-18T15:07:14;4.13;;;1.00;;
24467;SDS011;12634;50.852;5.676;2022-07-18T15:09:41;5.07;;;1.00;;
24467;SDS011;12634;50.852;5.676;2022-07-18T15:12:09;3.22;;;0.90;;
24467;SDS011;12634;50.852;5.676;2022-07-18T15:14:38;3.03;;;1.13;;
24467;SDS011;12634;50.852;5.676;2022-07-18T15:17:05;3.72;;;0.93;;
24467;SDS011;12634;50.852;5.676;2022-07-18T15:19:32;1.70;;;1.10;;
24467;SDS011;12634;50.852;5.676;2022-07-18T15:22:00;2.45;;;1.00;;
24467;SDS011;12634;50.852;5.676;2022-07-18T15:24:30;1.85;;;1.02;;
24467;SDS011;12634;50.852;5.676;2022-07-18T15:26:57;1.88;;;0.82;;
24467;SDS011;12634;50.852;5.676;2022-07-18T15:29:24;2.50;;;0.90;;
24467;SDS011;12634;50.852;5.676;2022-07-18T15:31:53;2.28;;;1.00;;
24467;SDS011;12634;50.852;5.676;2022-07-18T15:34:20;3.40;;;0.80;;
24467;SDS011;12634;50.852;5.676;2022-07-18T15:36:49;1.95;;;1.10;;
24467;SDS011;12634;50.852;5.676;2022-07-18T15:39:16;2.65;;;1.20;;
24467;SDS011;12634;50.852;5.676;2022-07-18T15:41:43;3.13;;;1.50;;
24467;SDS011;12634;50.852;5.676;2022-07-18T15:44:11;3.90;;;1.00;;
24467;SDS011;12634;50.852;5.676;2022-07-18T15:46:38;2.40;;;1.00;;
24467;SDS011;12634;50.852;5.676;2022-07-18T15:49:07;1.73;;;1.10;;
24467;SDS011;12634;50.852;5.676;2022-07-18T15:51:35;3.78;;;0.85;;
24467;SDS011;12634;50.852;5.676;2022-07-18T15:54:02;2.67;;;1.00;;
24467;SDS011;12634;50.852;5.676;2022-07-18T15:56:30;3.30;;;1.08;;
24467;SDS011;12634;50.852;5.676;2022-07-18T15:58:57;1.95;;;1.10;;
24467;SDS011;12634;50.852;5.676;2022-07-18T16:01:24;2.10;;;1.13;;
24467;SDS011;12634;50.852;5.676;2022-07-18T16:03:51;3.60;;;1.00;;
24467;SDS011;12634;50.852;5.676;2022-07-18T16:06:20;2.15;;;1.00;;
24467;SDS011;12634;50.852;5.676;2022-07-18T16:08:47;4.03;;;0.82;;
24467;SDS011;12634;50.852;5.676;2022-07-18T16:11:14;1.10;;;0.85;;
24467;SDS011;12634;50.852;5.676;2022-07-18T16:13:41;6.63;;;1.63;;
24467;SDS011;12634;50.852;5.676;2022-07-18T16:16:09;2.63;;;1.00;;
24467;SDS011;12634;50.852;5.676;2022-07-18T16:18:36;3.22;;;1.10;;
24467;SDS011;12634;50.852;5.676;2022-07-18T16:21:03;2.95;;;0.93;;
24467;SDS011;12634;50.852;5.676;2022-07-18T16:23:32;5.97;;;1.10;;
24467;SDS011;12634;50.852;5.676;2022-07-18T16:26:00;3.53;;;1.30;;
24467;SDS011;12634;50.852;5.676;2022-07-18T16:28:27;1.42;;;0.93;;
24467;SDS011;12634;50.852;5.676;2022-07-18T16:30:54;1.30;;;0.80;;
24467;SDS011;12634;50.852;5.676;2022-07-18T16:33:21;4.70;;;1.00;;
24467;SDS011;12634;50.852;5.676;2022-07-18T16:35:48;2.92;;;1.25;;
24467;SDS011;12634;50.852;5.676;2022-07-18T16:38:16;3.65;;;1.02;;
24467;SDS011;12634;50.852;5.676;2022-07-18T16:40:45;2.22;;;1.20;;
24467;SDS011;12634;50.852;5.676;2022-07-18T16:43:13;2.35;;;0.63;;
24467;SDS011;12634;50.852;5.676;2022-07-18T16:45:41;3.08;;;1.20;;
24467;SDS011;12634;50.852;5.676;2022-07-18T16:48:09;2.08;;;1.00;;
24467;SDS011;12634;50.852;5.676;2022-07-18T16:50:40;2.25;;;1.05;;
24467;SDS011;12634;50.852;5.676;2022-07-18T16:53:08;1.42;;;0.90;;
24467;SDS011;12634;50.852;5.676;2022-07-18T16:55:36;3.05;;;0.93;;
24467;SDS011;12634;50.852;5.676;2022-07-18T16:58:05;2.92;;;1.00;;
24467;SDS011;12634;50.852;5.676;2022-07-18T17:00:33;2.10;;;1.10;;
24467;SDS011;12634;50.852;5.676;2022-07-18T17:03:01;4.07;;;1.10;;
24467;SDS011;12634;50.852;5.676;2022-07-18T17:05:29;3.05;;;1.00;;
24467;SDS011;12634;50.852;5.676;2022-07-18T17:07:57;3.63;;;1.10;;
24467;SDS011;12634;50.852;5.676;2022-07-18T17:10:25;2.08;;;0.80;;
24467;SDS011;12634;50.852;5.676;2022-07-18T17:12:53;4.15;;;1.00;;
24467;SDS011;12634;50.852;5.676;2022-07-18T17:15:22;2.92;;;0.90;;
24467;SDS011;12634;50.852;5.676;2022-07-18T17:17:50;2.25;;;0.98;;
24467;SDS011;12634;50.852;5.676;2022-07-18T17:20:18;1.95;;;0.90;;
24467;SDS011;12634;50.852;5.676;2022-07-18T17:22:45;2.00;;;0.90;;
24467;SDS011;12634;50.852;5.676;2022-07-18T17:25:13;2.90;;;0.90;;
24467;SDS011;12634;50.852;5.676;2022-07-18T17:27:41;3.28;;;1.38;;
24467;SDS011;12634;50.852;5.676;2022-07-18T17:30:09;2.55;;;0.95;;
24467;SDS011;12634;50.852;5.676;2022-07-18T17:32:39;3.65;;;1.00;;
24467;SDS011;12634;50.852;5.676;2022-07-18T17:35:07;3.10;;;1.00;;
24467;SDS011;12634;50.852;5.676;2022-07-18T17:37:36;2.15;;;0.90;;
24467;SDS011;12634;50.852;5.676;2022-07-18T17:40:06;3.55;;;1.10;;
24467;SDS011;12634;50.852;5.676;2022-07-18T17:42:34;1.63;;;0.80;;
24467;SDS011;12634;50.852;5.676;2022-07-18T17:45:02;1.30;;;0.95;;
24467;SDS011;12634;50.852;5.676;2022-07-18T17:47:30;2.47;;;1.10;;
24467;SDS011;12634;50.852;5.676;2022-07-18T17:50:05;1.92;;;1.10;;
24467;SDS011;12634;50.852;5.676;2022-07-18T17:52:34;3.45;;;1.10;;
24467;SDS011;12634;50.852;5.676;2022-07-18T17:55:01;3.28;;;1.23;;
24467;SDS011;12634;50.852;5.676;2022-07-18T17:57:29;2.80;;;1.20;;
24467;SDS011;12634;50.852;5.676;2022-07-18T17:59:57;2.35;;;1.13;;
24467;SDS011;12634;50.852;5.676;2022-07-18T18:02:24;1.58;;;0.90;;
24467;SDS011;12634;50.852;5.676;2022-07-18T18:04:52;1.75;;;1.08;;
24467;SDS011;12634;50.852;5.676;2022-07-18T18:07:21;2.38;;;1.00;;
24467;SDS011;12634;50.852;5.676;2022-07-18T18:09:48;1.95;;;1.05;;
24467;SDS011;12634;50.852;5.676;2022-07-18T18:12:18;2.80;;;1.20;;
24467;SDS011;12634;50.852;5.676;2022-07-18T18:14:46;2.67;;;1.20;;
24467;SDS011;12634;50.852;5.676;2022-07-18T18:17:14;2.38;;;1.08;;
24467;SDS011;12634;50.852;5.676;2022-07-18T18:19:41;3.63;;;1.10;;
24467;SDS011;12634;50.852;5.676;2022-07-18T18:22:08;2.28;;;1.30;;
24467;SDS011;12634;50.852;5.676;2022-07-18T18:24:37;3.55;;;1.98;;
24467;SDS011;12634;50.852;5.676;2022-07-18T18:27:05;2.28;;;1.05;;
24467;SDS011;12634;50.852;5.676;2022-07-18T18:29:32;3.08;;;1.30;;
24467;SDS011;12634;50.852;5.676;2022-07-18T18:31:59;3.42;;;1.15;;
24467;SDS011;12634;50.852;5.676;2022-07-18T18:34:26;4.60;;;1.25;;
24467;SDS011;12634;50.852;5.676;2022-07-18T18:36:53;4.00;;;1.20;;
24467;SDS011;12634;50.852;5.676;2022-07-18T18:39:31;1.63;;;0.90;;
24467;SDS011;12634;50.852;5.676;2022-07-18T18:42:02;3.42;;;1.33;;
24467;SDS011;12634;50.852;5.676;2022-07-18T18:44:30;3.55;;;1.40;;
24467;SDS011;12634;50.852;5.676;2022-07-18T18:46:57;4.75;;;1.38;;
24467;SDS011;12634;50.852;5.676;2022-07-18T18:49:25;3.47;;;1.13;;
24467;SDS011;12634;50.852;5.676;2022-07-18T18:51:54;2.72;;;1.30;;
24467;SDS011;12634;50.852;5.676;2022-07-18T18:54:21;4.70;;;1.30;;
24467;SDS011;12634;50.852;5.676;2022-07-18T18:56:49;2.88;;;1.02;;
24467;SDS011;12634;50.852;5.676;2022-07-18T18:59:18;3.80;;;1.40;;
24467;SDS011;12634;50.852;5.676;2022-07-18T19:01:45;3.22;;;1.05;;
24467;SDS011;12634;50.852;5.676;2022-07-18T19:04:13;3.85;;;1.17;;
24467;SDS011;12634;50.852;5.676;2022-07-18T19:06:41;6.63;;;1.40;;
24467;SDS011;12634;50.852;5.676;2022-07-18T19:09:09;8.00;;;1.33;;
24467;SDS011;12634;50.852;5.676;2022-07-18T19:11:37;6.55;;;1.33;;
24467;SDS011;12634;50.852;5.676;2022-07-18T19:14:04;6.22;;;1.30;;
24467;SDS011;12634;50.852;5.676;2022-07-18T19:16:33;4.93;;;1.60;;
24467;SDS011;12634;50.852;5.676;2022-07-18T19:19:00;2.92;;;1.40;;
24467;SDS011;12634;50.852;5.676;2022-07-18T19:21:28;3.42;;;1.10;;
24467;SDS011;12634;50.852;5.676;2022-07-18T19:23:56;3.40;;;1.48;;
24467;SDS011;12634;50.852;5.676;2022-07-18T19:26:23;7.57;;;2.10;;
24467;SDS011;12634;50.852;5.676;2022-07-18T19:28:51;10.52;;;3.40;;
24467;SDS011;12634;50.852;5.676;2022-07-18T19:31:18;5.38;;;2.17;;
24467;SDS011;12634;50.852;5.676;2022-07-18T19:33:47;3.15;;;1.88;;
24467;SDS011;12634;50.852;5.676;2022-07-18T19:36:14;8.07;;;2.03;;
24467;SDS011;12634;50.852;5.676;2022-07-18T19:38:42;7.55;;;1.80;;
24467;SDS011;12634;50.852;5.676;2022-07-18T19:41:09;6.45;;;1.80;;
24467;SDS011;12634;50.852;5.676;2022-07-18T19:43:36;6.20;;;2.20;;
24467;SDS011;12634;50.852;5.676;2022-07-18T19:46:04;4.68;;;1.80;;
24467;SDS011;12634;50.852;5.676;2022-07-18T19:48:32;5.05;;;2.10;;
24467;SDS011;12634;50.852;5.676;2022-07-18T19:51:02;7.07;;;2.05;;
24467;SDS011;12634;50.852;5.676;2022-07-18T19:53:30;5.32;;;1.50;;
24467;SDS011;12634;50.852;5.676;2022-07-18T19:55:57;4.57;;;1.98;;
24467;SDS011;12634;50.852;5.676;2022-07-18T19:58:25;4.97;;;1.92;;
24467;SDS011;12634;50.852;5.676;2022-07-18T20:00:52;3.40;;;2.20;;
24467;SDS011;12634;50.852;5.676;2022-07-18T20:03:19;4.10;;;1.92;;
24467;SDS011;12634;50.852;5.676;2022-07-18T20:05:47;7.07;;;2.17;;
24467;SDS011;12634;50.852;5.676;2022-07-18T20:08:16;4.55;;;1.95;;
24467;SDS011;12634;50.852;5.676;2022-07-18T20:10:43;3.17;;;1.63;;
24467;SDS011;12634;50.852;5.676;2022-07-18T20:13:10;5.75;;;2.00;;
24467;SDS011;12634;50.852;5.676;2022-07-18T20:15:38;5.43;;;1.73;;
24467;SDS011;12634;50.852;5.676;2022-07-18T20:18:05;6.60;;;1.67;;
24467;SDS011;12634;50.852;5.676;2022-07-18T20:20:32;7.50;;;1.92;;
24467;SDS011;12634;50.852;5.676;2022-07-18T20:23:01;8.90;;;2.70;;
24467;SDS011;12634;50.852;5.676;2022-07-18T20:25:32;3.67;;;1.77;;
24467;SDS011;12634;50.852;5.676;2022-07-18T20:28:00;9.90;;;2.05;;
24467;SDS011;12634;50.852;5.676;2022-07-18T20:30:28;5.78;;;2.03;;
24467;SDS011;12634;50.852;5.676;2022-07-18T20:32:57;6.72;;;1.70;;
24467;SDS011;12634;50.852;5.676;2022-07-18T20:35:24;4.20;;;1.80;;
24467;SDS011;12634;50.852;5.676;2022-07-18T20:37:52;5.80;;;2.08;;
24467;SDS011;12634;50.852;5.676;2022-07-18T20:40:21;7.07;;;2.03;;
24467;SDS011;12634;50.852;5.676;2022-07-18T20:42:50;2.97;;;1.90;;
24467;SDS011;12634;50.852;5.676;2022-07-18T20:45:17;4.32;;;2.05;;
24467;SDS011;12634;50.852;5.676;2022-07-18T20:47:48;7.15;;;2.10;;
24467;SDS011;12634;50.852;5.676;2022-07-18T20:50:15;5.43;;;2.15;;
24467;SDS011;12634;50.852;5.676;2022-07-18T20:52:42;7.10;;;2.40;;
24467;SDS011;12634;50.852;5.676;2022-07-18T20:55:10;10.30;;;2.35;;
24467;SDS011;12634;50.852;5.676;2022-07-18T20:57:37;5.03;;;2.08;;
24467;SDS011;12634;50.852;5.676;2022-07-18T21:00:06;8.75;;;2.75;;
24467;SDS011;12634;50.852;5.676;2022-07-18T21:02:35;5.15;;;2.38;;
24467;SDS011;12634;50.852;5.676;2022-07-18T21:05:02;9.00;;;2.28;;
24467;SDS011;12634;50.852;5.676;2022-07-18T21:07:29;6.47;;;2.45;;
24467;SDS011;12634;50.852;5.676;2022-07-18T21:09:57;9.27;;;2.42;;
24467;SDS011;12634;50.852;5.676;2022-07-18T21:12:24;5.32;;;2.25;;
24467;SDS011;12634;50.852;5.676;2022-07-18T21:14:51;6.47;;;2.63;;
24467;SDS011;12634;50.852;5.676;2022-07-18T21:17:36;4.10;;;2.33;;
24467;SDS011;12634;50.852;5.676;2022-07-18T21:20:06;6.95;;;2.67;;
24467;SDS011;12634;50.852;5.676;2022-07-18T21:22:35;6.55;;;2.88;;
24467;SDS011;12634;50.852;5.676;2022-07-18T21:25:03;11.75;;;2.78;;
24467;SDS011;12634;50.852;5.676;2022-07-18T21:27:31;6.03;;;2.72;;
24467;SDS011;12634;50.852;5.676;2022-07-18T21:29:59;6.43;;;2.22;;
24467;SDS011;12634;50.852;5.676;2022-07-18T21:32:28;6.85;;;2.08;;
24467;SDS011;12634;50.852;5.676;2022-07-18T21:34:57;8.25;;;2.42;;
24467;SDS011;12634;50.852;5.676;2022-07-18T21:37:25;6.40;;;3.08;;
24467;SDS011;12634;50.852;5.676;2022-07-18T21:39:52;7.57;;;2.80;;
24467;SDS011;12634;50.852;5.676;2022-07-18T21:42:19;6.50;;;3.40;;
24467;SDS011;12634;50.852;5.676;2022-07-18T21:44:47;8.27;;;3.55;;
24467;SDS011;12634;50.852;5.676;2022-07-18T21:47:14;7.65;;;3.75;;
24467;SDS011;12634;50.852;5.676;2022-07-18T21:49:41;6.03;;;2.90;;
24467;SDS011;12634;50.852;5.676;2022-07-18T21:52:10;7.35;;;3.42;;
24467;SDS011;12634;50.852;5.676;2022-07-18T21:54:37;5.75;;;2.92;;
24467;SDS011;12634;50.852;5.676;2022-07-18T21:57:05;6.60;;;3.38;;
24467;SDS011;12634;50.852;5.676;2022-07-18T21:59:32;7.60;;;2.88;;
24467;SDS011;12634;50.852;5.676;2022-07-18T22:01:59;6.35;;;2.97;;
24467;SDS011;12634;50.852;5.676;2022-07-18T22:04:26;6.07;;;2.42;;
24467;SDS011;12634;50.852;5.676;2022-07-18T22:06:54;5.95;;;2.45;;
24467;SDS011;12634;50.852;5.676;2022-07-18T22:09:22;5.80;;;2.60;;
24467;SDS011;12634;50.852;5.676;2022-07-18T22:11:50;5.85;;;2.10;;
24467;SDS011;12634;50.852;5.676;2022-07-18T22:14:17;4.13;;;1.92;;
24467;SDS011;12634;50.852;5.676;2022-07-18T22:16:46;6.93;;;2.20;;
24467;SDS011;12634;50.852;5.676;2022-07-18T22:19:14;12.90;;;1.95;;
24467;SDS011;12634;50.852;5.676;2022-07-18T22:21:41;7.88;;;2.05;;
24467;SDS011;12634;50.852;5.676;2022-07-18T22:24:08;5.43;;;1.85;;
24467;SDS011;12634;50.852;5.676;2022-07-18T22:26:37;12.20;;;3.45;;
24467;SDS011;12634;50.852;5.676;2022-07-18T22:29:05;10.88;;;2.40;;
24467;SDS011;12634;50.852;5.676;2022-07-18T22:31:32;10.63;;;2.13;;
24467;SDS011;12634;50.852;5.676;2022-07-18T22:34:00;8.13;;;2.30;;
24467;SDS011;12634;50.852;5.676;2022-07-18T22:36:27;4.70;;;2.03;;
24467;SDS011;12634;50.852;5.676;2022-07-18T22:38:54;6.93;;;2.53;;
24467;SDS011;12634;50.852;5.676;2022-07-18T22:41:22;5.95;;;1.98;;
24467;SDS011;12634;50.852;5.676;2022-07-18T22:43:51;4.75;;;2.30;;
24467;SDS011;12634;50.852;5.676;2022-07-18T22:46:18;6.20;;;2.20;;
24467;SDS011;12634;50.852;5.676;2022-07-18T22:48:45;4.82;;;1.98;;
24467;SDS011;12634;50.852;5.676;2022-07-18T22:51:13;6.22;;;2.00;;
24467;SDS011;12634;50.852;5.676;2022-07-18T22:53:40;7.35;;;2.30;;
24467;SDS011;12634;50.852;5.676;2022-07-18T22:56:07;6.15;;;2.22;;
24467;SDS011;12634;50.852;5.676;2022-07-18T22:58:34;4.20;;;2.17;;
24467;SDS011;12634;50.852;5.676;2022-07-18T23:01:03;4.82;;;1.95;;
24467;SDS011;12634;50.852;5.676;2022-07-18T23:03:30;6.20;;;1.90;;
24467;SDS011;12634;50.852;5.676;2022-07-18T23:05:58;8.98;;;2.20;;
24467;SDS011;12634;50.852;5.676;2022-07-18T23:08:25;5.30;;;2.58;;
24467;SDS011;12634;50.852;5.676;2022-07-18T23:10:52;6.38;;;2.72;;
24467;SDS011;12634;50.852;5.676;2022-07-18T23:13:20;5.15;;;2.45;;
24467;SDS011;12634;50.852;5.676;2022-07-18T23:15:47;5.88;;;2.38;;
24467;SDS011;12634;50.852;5.676;2022-07-18T23:18:15;7.88;;;2.83;;
24467;SDS011;12634;50.852;5.676;2022-07-18T23:20:43;4.13;;;2.00;;
24467;SDS011;12634;50.852;5.676;2022-07-18T23:23:10;5.22;;;2.42;;
24467;SDS011;12634;50.852;5.676;2022-07-18T23:25:37;5.85;;;1.98;;
24467;SDS011;12634;50.852;5.676;2022-07-18T23:28:05;9.50;;;2.35;;
24467;SDS011;12634;50.852;5.676;2022-07-18T23:30:32;9.60;;;2.22;;
24467;SDS011;12634;50.852;5.676;2022-07-18T23:32:59;6.20;;;1.77;;
24467;SDS011;12634;50.852;5.676;2022-07-18T23:35:28;6.53;;;2.10;;
24467;SDS011;12634;50.852;5.676;2022-07-18T23:37:56;6.28;;;2.00;;
24467;SDS011;12634;50.852;5.676;2022-07-18T23:40:23;6.68;;;2.63;;
24467;SDS011;12634;50.852;5.676;2022-07-18T23:42:50;5.03;;;2.55;;
24467;SDS011;12634;50.852;5.676;2022-07-18T23:45:17;6.13;;;2.53;;
24467;SDS011;12634;50.852;5.676;2022-07-18T23:47:45;10.00;;;2.08;;
24467;SDS011;12634;50.852;5.676;2022-07-18T23:50:13;5.82;;;2.10;;
24467;SDS011;12634;50.852;5.676;2022-07-18T23:52:48;6.15;;;2.20;;
24467;SDS011;12634;50.852;5.676;2022-07-18T23:55:16;8.25;;;2.22;;
24467;SDS011;12634;50.852;5.676;2022-07-18T23:57:44;5.18;;;1.80;;
